createdAt,value
2019-06-07T00:00:40.120Z,69.31
2019-06-07T00:03:10.722Z,70.34
2019-06-07T00:05:39.295Z,70.05
2019-06-07T00:08:17.080Z,70.28
2019-06-07T00:10:42.759Z,70.10
2019-06-07T00:13:17.102Z,69.77
2019-06-07T00:15:46.193Z,69.63
2019-06-07T00:18:20.970Z,69.52
2019-06-07T00:20:49.924Z,70.12
2019-06-07T00:23:22.839Z,70.77
2019-06-07T00:25:53.382Z,71.44
2019-06-07T00:28:24.103Z,71.41
2019-06-07T00:30:55.057Z,70.94
2019-06-07T00:33:25.760Z,71.05
2019-06-07T00:35:56.426Z,70.50
2019-06-07T00:38:27.410Z,70.53
2019-06-07T00:40:58.350Z,70.94
2019-06-07T00:43:29.344Z,70.90
2019-06-07T00:46:00.317Z,71.22
2019-06-07T00:48:32.888Z,71.57
2019-06-07T00:51:03.659Z,71.57
2019-06-07T00:53:34.632Z,71.02
2019-06-07T00:56:05.699Z,70.73
2019-06-07T00:58:36.678Z,71.26
2019-06-07T01:01:07.685Z,71.37
2019-06-07T01:03:38.655Z,71.12
2019-06-07T01:06:09.627Z,70.42
2019-06-07T01:08:40.312Z,70.21
2019-06-07T01:11:11.293Z,70.26
2019-06-07T01:13:42.269Z,70.74
2019-06-07T01:16:13.738Z,71.16
2019-06-07T01:18:46.769Z,70.85
2019-06-07T01:21:20.613Z,74.59
2019-06-07T01:24:11.925Z,73.71
2019-06-07T01:26:26.355Z,75.99
2019-06-07T01:28:55.323Z,76.62
2019-06-07T01:31:28.493Z,78.08
2019-06-07T01:33:58.395Z,77.82
2019-06-07T01:36:31.013Z,78.31
2019-06-07T01:39:02.163Z,79.51
2019-06-07T01:41:34.446Z,80.64
2019-06-07T01:44:05.672Z,80.49
2019-06-07T01:46:36.760Z,80.20
2019-06-07T01:49:07.426Z,79.54
2019-06-07T01:51:38.502Z,79.88
2019-06-07T01:56:41.888Z,82.57
2019-06-07T01:59:12.888Z,83.62
2019-06-07T02:01:43.570Z,83.18
2019-06-07T02:04:14.245Z,82.27
2019-06-07T02:06:44.974Z,82.12
2019-06-07T02:09:15.710Z,82.29
2019-06-07T02:11:46.398Z,82.51
2019-06-07T02:14:17.503Z,83.75
2019-06-07T02:16:48.488Z,83.91
2019-06-07T02:19:19.502Z,83.29
2019-06-07T02:21:50.347Z,83.45
2019-06-07T02:24:24.766Z,83.65
2019-06-07T02:26:53.786Z,83.61
2019-06-07T02:29:25.458Z,84.13
2019-06-07T02:31:56.852Z,83.52
2019-06-07T02:34:34.805Z,84.42
2019-06-07T02:37:00.204Z,83.60
2019-06-07T02:39:37.543Z,84.18
2019-06-07T02:42:03.819Z,83.91
2019-06-07T02:44:39.191Z,83.58
2019-06-07T02:47:07.837Z,82.94
2019-06-07T02:49:41.344Z,83.39
2019-06-07T02:52:11.240Z,83.71
2019-06-07T02:54:41.981Z,84.11
2019-06-07T02:57:13.023Z,84.30
2019-06-07T03:00:05.021Z,84.14
2019-06-07T03:02:16.863Z,84.35
2019-06-07T03:04:48.054Z,84.44
2019-06-07T03:07:20.334Z,84.70
2019-06-07T03:09:52.114Z,84.58
2019-06-07T03:12:24.330Z,84.72
2019-06-07T03:14:56.354Z,84.80
2019-06-07T03:17:37.867Z,85.34
2019-06-07T03:20:10.541Z,85.25
2019-06-07T03:22:43.442Z,84.65
2019-06-07T03:25:14.268Z,84.92
2019-06-07T03:27:49.856Z,84.77
2019-06-07T03:32:52.080Z,85.09
2019-06-07T03:35:23.232Z,85.23
2019-06-07T03:37:53.960Z,85.11
2019-06-07T03:40:25.105Z,85.18
2019-06-07T03:42:56.094Z,85.65
2019-06-07T03:45:28.619Z,84.96
2019-06-07T03:47:59.850Z,84.72
2019-06-07T03:50:32.324Z,84.48
2019-06-07T03:53:03.240Z,84.95
2019-06-07T03:55:37.737Z,85.08
2019-06-07T04:00:42.989Z,83.74
2019-06-07T04:03:32.380Z,84.12
2019-06-07T04:05:44.626Z,84.32
2019-06-07T04:08:15.291Z,83.82
2019-06-07T04:10:59.234Z,82.01
2019-06-07T04:13:18.362Z,82.80
2019-06-07T04:15:49.156Z,82.14
2019-06-07T04:18:19.895Z,82.10
2019-06-07T04:20:50.974Z,82.02
2019-06-07T04:23:28.308Z,82.41
2019-06-07T04:25:54.345Z,82.16
2019-06-07T04:29:19.185Z,82.23
2019-06-07T04:30:57.607Z,82.38
2019-06-07T04:33:28.764Z,82.37
2019-06-07T04:36:01.869Z,81.68
2019-06-07T04:38:36.986Z,83.54
2019-06-07T04:41:09.011Z,83.55
2019-06-07T04:43:42.846Z,83.98
2019-06-07T04:46:13.960Z,83.97
2019-06-07T04:48:47.631Z,82.98
2019-06-07T04:51:20.095Z,82.00
2019-06-07T04:53:51.171Z,81.40
2019-06-07T04:56:22.191Z,79.55
2019-06-07T04:58:53.857Z,78.66
2019-06-07T05:01:27.744Z,77.52
2019-06-07T05:03:57.498Z,76.32
2019-06-07T05:06:29.933Z,76.48
2019-06-07T05:09:00.954Z,75.73
2019-06-07T05:11:33.975Z,75.69
2019-06-07T05:14:04.930Z,76.38
2019-06-07T05:16:43.311Z,76.38
2019-06-07T05:19:11.694Z,76.34
2019-06-07T05:22:01.403Z,74.68
2019-06-07T05:24:16.320Z,74.68
2019-06-07T05:26:47.047Z,74.48
2019-06-07T05:29:18.103Z,74.80
2019-06-07T05:31:49.884Z,75.93
2019-06-07T05:34:20.563Z,75.26
2019-06-07T05:37:10.624Z,75.86
2019-06-07T05:39:23.757Z,76.23
2019-06-07T05:41:54.462Z,75.96
2019-06-07T05:44:25.163Z,76.89
2019-06-07T05:46:56.311Z,75.91
2019-06-07T05:49:27.376Z,76.99
2019-06-07T05:51:58.410Z,75.37
2019-06-07T05:54:29.417Z,74.11
2019-06-07T05:57:01.265Z,74.73
2019-06-07T05:59:33.425Z,73.74
2019-06-07T06:02:21.754Z,75.24
2019-06-07T06:04:40.264Z,73.18
2019-06-07T06:07:10.204Z,71.36
2019-06-07T06:09:43.063Z,71.88
2019-06-07T06:12:13.267Z,70.26
2019-06-07T06:14:44.971Z,69.85
2019-06-07T06:17:16.642Z,68.85
2019-06-07T06:19:52.477Z,69.71
2019-06-07T06:22:20.107Z,68.48
2019-06-07T06:25:29.922Z,68.95
2019-06-07T06:28:02.861Z,68.41
2019-06-07T06:29:55.727Z,69.83
2019-06-07T06:32:42.109Z,69.61
2019-06-07T06:35:00.289Z,70.80
2019-06-07T06:37:31.426Z,69.95
2019-06-07T06:40:02.509Z,70.42
2019-06-07T06:42:34.541Z,71.51
2019-06-07T06:45:09.444Z,71.72
2019-06-07T06:47:40.693Z,70.20
2019-06-07T06:50:12.999Z,68.58
2019-06-07T06:52:46.221Z,68.22
2019-06-07T06:55:16.511Z,69.21
2019-06-07T06:57:48.343Z,68.49
2019-06-07T07:00:53.435Z,68.16
2019-06-07T07:05:54.810Z,67.01
2019-06-07T07:08:26.026Z,68.81
2019-06-07T07:10:57.074Z,71.69
2019-06-07T07:13:28.071Z,69.72
2019-06-07T07:15:59.131Z,69.30
2019-06-07T07:18:30.178Z,68.78
2019-06-07T07:21:00.871Z,68.90
2019-06-07T07:23:31.569Z,70.01
2019-06-07T07:26:02.257Z,70.90
2019-06-07T07:28:33.325Z,70.88
2019-06-07T07:31:04.708Z,71.02
2019-06-07T07:36:28.146Z,71.43
2019-06-07T07:38:40.568Z,71.12
2019-06-07T07:41:15.534Z,70.39
2019-06-07T07:43:45.716Z,69.46
2019-06-07T07:46:31.816Z,68.31
2019-06-07T07:48:53.007Z,68.01
2019-06-07T07:51:21.626Z,67.85
2019-06-07T07:54:04.278Z,66.14
2019-06-07T07:56:25.029Z,63.71
2019-06-07T07:59:01.484Z,63.89
2019-06-07T08:01:28.415Z,64.34
2019-06-07T08:03:59.437Z,63.93
2019-06-07T08:06:30.515Z,63.44
2019-06-07T08:09:01.633Z,63.48
2019-06-07T08:11:33.375Z,63.29
2019-06-07T08:14:04.425Z,62.66
2019-06-07T08:16:35.505Z,62.02
2019-06-07T08:19:06.528Z,58.92
2019-06-07T08:21:38.642Z,60.67
2019-06-07T08:24:09.916Z,60.28
2019-06-07T08:26:40.956Z,60.67
2019-06-07T08:29:11.907Z,59.98
2019-06-07T08:31:42.862Z,59.39
2019-06-07T08:34:13.920Z,58.02
2019-06-07T08:36:44.963Z,57.94
2019-06-07T08:39:15.962Z,57.98
2019-06-07T08:41:59.319Z,56.61
2019-06-07T08:44:23.952Z,54.44
2019-06-07T08:46:56.600Z,56.45
2019-06-07T08:49:24.451Z,55.83
2019-06-07T08:52:04.549Z,56.82
2019-06-07T08:54:27.546Z,55.78
2019-06-07T08:57:16.872Z,58.22
2019-06-07T08:59:33.247Z,58.68
2019-06-07T09:02:20.754Z,58.51
2019-06-07T09:04:36.279Z,63.13
2019-06-07T09:07:18.786Z,63.49
2019-06-07T09:09:39.334Z,63.83
2019-06-07T09:12:11.407Z,64.88
2019-06-07T09:14:59.485Z,64.99
2019-06-07T09:17:15.765Z,65.56
2019-06-07T09:19:46.470Z,64.82
2019-06-07T09:22:17.124Z,64.20
2019-06-07T09:24:47.914Z,63.46
2019-06-07T09:27:18.593Z,64.63
2019-06-07T09:29:49.928Z,62.85
2019-06-07T09:32:20.613Z,62.18
2019-06-07T09:34:51.307Z,59.93
2019-06-07T09:38:03.686Z,59.61
2019-06-07T09:39:59.508Z,59.82
2019-06-07T09:42:28.858Z,57.67
2019-06-07T09:45:02.132Z,58.03
2019-06-07T09:47:33.201Z,56.75
2019-06-07T09:50:09.065Z,56.58
2019-06-07T09:52:57.135Z,54.74
2019-06-07T09:55:23.169Z,55.09
2019-06-07T09:57:43.381Z,54.73
2019-06-07T10:02:49.567Z,53.28
2019-06-07T10:05:20.333Z,52.66
2019-06-07T10:08:09.452Z,51.14
2019-06-07T10:12:57.278Z,51.52
2019-06-07T10:15:29.318Z,49.27
2019-06-07T10:18:00.755Z,49.39
2019-06-07T10:20:31.480Z,47.26
2019-06-07T10:23:03.567Z,47.18
2019-06-07T10:25:34.701Z,44.78
2019-06-07T10:28:06.084Z,46.27
2019-06-07T10:30:36.940Z,45.87
2019-06-07T10:33:08.582Z,44.31
2019-06-07T10:35:39.584Z,44.66
2019-06-07T10:38:10.731Z,42.06
2019-06-07T10:40:42.587Z,41.89
2019-06-07T10:43:14.562Z,41.32
2019-06-07T10:45:45.594Z,41.96
2019-06-07T10:48:16.582Z,40.48
2019-06-07T10:50:48.538Z,40.03
2019-06-07T10:53:19.523Z,40.95
2019-06-07T10:55:50.220Z,43.00
2019-06-07T10:58:21.420Z,42.82
2019-06-07T11:00:52.213Z,43.02
2019-06-07T11:03:22.886Z,45.13
2019-06-07T11:05:53.872Z,45.69
2019-06-07T11:08:24.846Z,43.99
2019-06-07T11:10:55.552Z,44.81
2019-06-07T11:13:26.513Z,44.46
2019-06-07T11:15:57.176Z,42.86
2019-06-07T11:18:28.000Z,43.84
2019-06-07T11:21:06.177Z,44.70
2019-06-07T11:23:39.317Z,43.15
2019-06-07T11:26:10.416Z,43.23
2019-06-07T11:28:41.342Z,41.76
2019-06-07T11:31:13.331Z,42.75
2019-06-07T11:33:44.698Z,41.11
2019-06-07T11:36:15.776Z,41.52
2019-06-07T11:38:46.770Z,41.34
2019-06-07T11:41:17.846Z,40.89
2019-06-07T11:43:48.912Z,44.03
2019-06-07T11:46:19.617Z,44.06
2019-06-07T11:48:50.283Z,43.86
2019-06-07T11:51:20.952Z,43.09
2019-06-07T11:53:51.911Z,44.21
2019-06-07T11:56:22.865Z,46.13
2019-06-07T11:58:54.786Z,46.54
2019-06-07T12:01:25.549Z,46.08
2019-06-07T12:03:58.671Z,46.52
2019-06-07T12:06:28.978Z,47.07
2019-06-07T12:08:59.954Z,47.55
2019-06-07T12:11:30.656Z,48.84
2019-06-07T12:14:01.348Z,50.52
2019-06-07T12:16:32.056Z,51.32
2019-06-07T12:19:02.735Z,51.80
2019-06-07T12:21:33.706Z,50.66
2019-06-07T12:24:04.762Z,51.70
2019-06-07T12:26:35.481Z,52.06
2019-06-07T12:29:06.729Z,51.22
2019-06-07T12:31:37.415Z,50.78
2019-06-07T12:34:08.372Z,51.32
2019-06-07T12:36:40.437Z,51.46
2019-06-07T12:39:11.874Z,52.39
2019-06-07T12:41:42.870Z,51.30
2019-06-07T12:44:14.557Z,51.37
2019-06-07T12:46:45.366Z,51.27
2019-06-07T12:49:17.046Z,51.76
2019-06-07T12:51:47.908Z,51.95
2019-06-07T12:54:19.647Z,53.19
2019-06-07T12:56:52.401Z,53.72
2019-06-07T12:59:24.320Z,54.13
2019-06-07T13:01:55.107Z,51.84
2019-06-07T13:04:27.661Z,52.52
2019-06-07T13:06:58.428Z,52.72
2019-06-07T13:09:29.344Z,53.86
2019-06-07T13:12:00.020Z,53.19
2019-06-07T13:14:30.930Z,51.40
2019-06-07T13:17:01.904Z,51.81
2019-06-07T13:19:32.837Z,51.83
2019-06-07T13:22:03.539Z,51.99
2019-06-07T13:24:34.217Z,52.43
2019-06-07T13:27:05.184Z,52.98
2019-06-07T13:29:36.114Z,52.91
2019-06-07T13:32:06.769Z,53.27
2019-06-07T13:34:37.753Z,53.82
2019-06-07T13:37:08.766Z,52.44
2019-06-07T13:39:39.716Z,51.01
2019-06-07T13:42:10.386Z,50.41
2019-06-07T13:44:41.361Z,50.48
2019-06-07T13:47:13.053Z,50.59
2019-06-07T13:49:44.069Z,50.32
2019-06-07T13:52:14.755Z,49.87
2019-06-07T13:54:45.434Z,49.41
2019-06-07T13:57:18.156Z,49.75
2019-06-07T13:59:49.333Z,50.40
2019-06-07T14:02:21.068Z,50.03
2019-06-07T14:04:52.369Z,50.32
2019-06-07T14:07:23.725Z,49.88
2019-06-07T14:09:56.175Z,51.07
2019-06-07T14:12:27.838Z,50.53
2019-06-07T14:14:58.888Z,49.77
2019-06-07T14:17:30.928Z,49.58
2019-06-07T14:20:02.188Z,51.01
2019-06-07T14:22:33.811Z,50.48
2019-06-07T14:25:06.760Z,49.67
2019-06-07T14:27:38.369Z,48.95
2019-06-07T14:30:11.481Z,48.56
2019-06-07T14:32:42.220Z,48.31
2019-06-07T14:35:16.181Z,49.08
2019-06-07T14:37:47.259Z,49.69
2019-06-07T14:40:18.998Z,49.35
2019-06-07T14:42:49.998Z,50.04
2019-06-07T14:45:21.410Z,50.23
2019-06-07T14:47:53.466Z,50.79
2019-06-07T14:50:24.538Z,50.40
2019-06-07T14:52:55.365Z,50.34
2019-06-07T14:55:26.971Z,50.67
2019-06-07T14:57:57.854Z,50.08
2019-06-07T15:00:44.272Z,50.55
2019-06-07T15:03:14.951Z,50.18
2019-06-07T15:05:46.015Z,52.08
2019-06-07T15:08:17.665Z,50.18
2019-06-07T15:10:48.708Z,50.61
2019-06-07T15:13:19.809Z,51.00
2019-06-07T15:15:51.046Z,51.14
2019-06-07T15:18:21.987Z,50.90
2019-06-07T15:20:52.955Z,51.30
2019-06-07T15:23:23.994Z,51.20
2019-06-07T15:25:55.616Z,51.42
2019-06-07T15:28:27.669Z,51.94
2019-06-07T15:30:59.981Z,51.89
2019-06-07T15:33:31.862Z,51.70
2019-06-07T15:36:02.922Z,50.62
2019-06-07T15:38:34.793Z,50.93
2019-06-07T15:41:05.490Z,51.53
2019-06-07T15:43:37.434Z,50.74
2019-06-07T15:46:08.256Z,50.88
2019-06-07T15:48:40.172Z,49.74
2019-06-07T15:51:11.231Z,50.40
2019-06-07T15:53:44.538Z,50.61
2019-06-07T15:56:14.548Z,50.94
2019-06-07T15:58:45.904Z,49.91
2019-06-07T16:01:16.838Z,50.09
2019-06-07T16:03:47.517Z,50.06
2019-06-07T16:06:19.674Z,50.63
2019-06-07T16:08:52.064Z,50.63
2019-06-07T16:11:23.046Z,50.15
2019-06-07T16:13:53.718Z,51.08
2019-06-07T16:16:25.291Z,51.22
2019-06-07T16:18:57.982Z,51.93
2019-06-07T16:21:28.674Z,51.42
2019-06-07T16:23:59.596Z,51.18
2019-06-07T16:26:31.256Z,51.45
2019-06-07T16:29:02.001Z,50.55
2019-06-07T16:31:32.824Z,50.14
2019-06-07T16:34:03.545Z,48.75
2019-06-07T16:36:34.230Z,48.84
2019-06-07T16:39:08.152Z,49.82
2019-06-07T16:41:38.813Z,49.96
2019-06-07T16:44:09.861Z,50.04
2019-06-07T16:46:40.739Z,50.49
2019-06-07T16:49:11.809Z,49.93
2019-06-07T16:51:43.287Z,49.88
2019-06-07T16:54:14.302Z,49.62
2019-06-07T16:56:48.028Z,50.01
2019-06-07T16:59:17.389Z,50.24
2019-06-07T17:01:49.558Z,49.66
2019-06-07T17:04:20.746Z,50.33
2019-06-07T17:06:51.562Z,50.40
2019-06-07T17:09:22.432Z,50.34
2019-06-07T17:11:53.150Z,50.13
2019-06-07T17:14:24.092Z,50.50
2019-06-07T17:16:55.016Z,50.57
2019-06-07T17:19:26.665Z,50.47
2019-06-07T17:21:57.428Z,50.88
2019-06-07T17:24:29.160Z,50.77
2019-06-07T17:26:59.844Z,50.96
2019-06-07T17:29:30.539Z,51.30
2019-06-07T17:32:01.252Z,51.58
2019-06-07T17:34:32.238Z,51.29
2019-06-07T17:37:03.283Z,51.50
2019-06-07T17:39:33.968Z,51.54
2019-06-07T17:42:04.930Z,51.85
2019-06-07T17:44:35.875Z,52.08
2019-06-07T17:47:06.807Z,51.63
2019-06-07T17:49:37.812Z,51.75
2019-06-07T17:52:08.521Z,51.96
2019-06-07T17:54:39.557Z,52.19
2019-06-07T17:57:10.406Z,51.98
2019-06-07T17:59:42.339Z,52.03
2019-06-07T18:02:15.554Z,52.34
2019-06-07T18:04:47.177Z,52.75
2019-06-07T18:07:21.006Z,52.92
2019-06-07T18:09:52.336Z,53.46
2019-06-07T18:12:22.999Z,53.40
2019-06-07T18:14:55.105Z,53.58
2019-06-07T18:17:33.982Z,53.37
2019-06-07T18:19:58.592Z,53.80
2019-06-07T18:22:29.507Z,53.83
2019-06-07T18:25:00.200Z,53.87
2019-06-07T18:27:31.141Z,54.07
2019-06-07T18:30:10.805Z,54.39
2019-06-07T18:32:36.164Z,54.42
2019-06-07T18:35:08.123Z,54.46
2019-06-07T18:37:39.086Z,54.82
2019-06-07T18:40:10.547Z,55.21
2019-06-07T18:42:41.492Z,55.71
2019-06-07T18:45:12.805Z,55.76
2019-06-07T18:47:43.799Z,56.12
2019-06-07T18:50:15.171Z,56.52
2019-06-07T18:52:46.881Z,56.64
2019-06-07T18:55:18.416Z,56.93
2019-06-07T18:57:50.176Z,57.27
2019-06-07T19:00:23.382Z,57.45
2019-06-07T19:02:54.133Z,57.76
2019-06-07T19:05:24.988Z,58.13
2019-06-07T19:07:56.931Z,58.83
2019-06-07T19:10:27.806Z,59.05
2019-06-07T19:13:00.435Z,59.16
2019-06-07T19:15:33.307Z,59.70
2019-06-07T19:18:04.402Z,59.99
2019-06-07T19:20:35.310Z,60.50
2019-06-07T19:23:07.036Z,60.67
2019-06-07T19:25:39.732Z,61.15
2019-06-07T19:28:10.959Z,61.34
2019-06-07T19:30:42.170Z,61.49
2019-06-07T19:33:14.409Z,61.96
2019-06-07T19:35:45.542Z,62.13
2019-06-07T19:38:17.176Z,62.27
2019-06-07T19:40:48.297Z,62.50
2019-06-07T19:43:19.293Z,62.71
2019-06-07T19:45:50.676Z,62.98
2019-06-07T19:48:22.860Z,63.29
2019-06-07T19:50:54.842Z,63.50
2019-06-07T19:56:10.069Z,63.82
2019-06-07T19:58:42.083Z,64.08
2019-06-07T20:01:13.564Z,64.03
2019-06-07T20:03:44.744Z,64.27
2019-06-07T20:06:15.421Z,64.30
2019-06-07T20:08:46.563Z,64.29
2019-06-07T20:11:17.519Z,64.24
2019-06-07T20:13:48.177Z,64.41
2019-06-07T20:16:19.646Z,64.63
2019-06-07T20:18:51.735Z,64.59
2019-06-07T20:21:22.790Z,64.49
2019-06-07T20:23:53.622Z,64.86
2019-06-07T20:26:24.928Z,65.22
2019-06-07T20:28:57.135Z,65.22
2019-06-07T20:31:27.916Z,65.63
2019-06-07T20:33:58.793Z,66.00
2019-06-07T20:36:30.058Z,66.21
2019-06-07T20:39:02.145Z,66.24
2019-06-07T20:41:34.573Z,66.34
2019-06-07T20:44:05.968Z,66.21
2019-06-07T20:46:36.913Z,66.17
2019-06-07T20:49:08.402Z,65.89
2019-06-07T20:51:39.811Z,66.08
2019-06-07T20:54:11.739Z,66.12
2019-06-07T20:56:43.063Z,65.96
2019-06-07T20:59:14.131Z,65.88
2019-06-07T21:01:45.363Z,66.05
2019-06-07T21:04:16.296Z,66.43
2019-06-07T21:06:47.442Z,66.45
2019-06-07T21:09:18.434Z,66.59
2019-06-07T21:11:50.004Z,66.44
2019-06-07T21:14:21.448Z,66.51
2019-06-07T21:16:55.664Z,66.75
2019-06-07T21:19:31.912Z,66.84
2019-06-07T21:22:06.658Z,66.85
2019-06-07T21:24:42.217Z,67.02
2019-06-07T21:27:14.957Z,67.40
2019-06-07T21:29:46.463Z,67.93
2019-06-07T21:32:17.367Z,67.75
2019-06-07T21:34:48.219Z,67.92
2019-06-07T21:37:19.467Z,67.80
2019-06-07T21:39:50.825Z,67.84
2019-06-07T21:42:22.970Z,67.47
2019-06-07T21:44:53.862Z,67.49
2019-06-07T21:47:25.196Z,67.71
2019-06-07T21:49:56.578Z,67.57
2019-06-07T21:52:27.697Z,67.67
2019-06-07T21:54:59.172Z,67.55
2019-06-07T21:57:30.229Z,67.54
2019-06-07T22:00:01.134Z,67.58
2019-06-07T22:02:32.287Z,67.81
2019-06-07T22:05:03.504Z,68.00
2019-06-07T22:07:34.319Z,68.26
2019-06-07T22:10:08.072Z,68.37
2019-06-07T22:12:39.112Z,68.54
2019-06-07T22:15:29.149Z,69.29
2019-06-07T22:17:43.144Z,69.81
2019-06-07T22:20:14.806Z,69.78
2019-06-07T22:22:45.762Z,70.86
2019-06-07T22:25:16.666Z,70.64
2019-06-07T22:27:47.360Z,71.19
2019-06-07T22:30:18.780Z,71.72
2019-06-07T22:32:49.792Z,72.15
2019-06-07T22:35:20.476Z,72.05
2019-06-07T22:37:51.464Z,72.47
2019-06-07T22:40:22.157Z,72.86
2019-06-07T22:42:52.830Z,72.62
2019-06-07T22:45:23.564Z,72.57
2019-06-07T22:47:54.485Z,72.66
2019-06-07T22:50:25.592Z,73.06
2019-06-07T22:52:56.579Z,73.62
2019-06-07T22:55:27.520Z,73.60
2019-06-07T22:57:59.619Z,73.49
2019-06-07T23:00:33.035Z,73.60
2019-06-07T23:03:04.001Z,73.66
2019-06-07T23:05:34.657Z,73.78
2019-06-07T23:08:05.776Z,74.18
2019-06-07T23:10:36.701Z,74.38
2019-06-07T23:13:07.395Z,74.70
2019-06-07T23:15:38.336Z,74.66
2019-06-07T23:18:09.412Z,74.84
2019-06-07T23:20:40.419Z,74.58
2019-06-07T23:23:12.263Z,74.83
2019-06-07T23:25:43.193Z,74.88
2019-06-07T23:28:14.388Z,75.08
2019-06-07T23:30:45.164Z,75.22
2019-06-07T23:33:16.812Z,75.42
2019-06-07T23:35:47.783Z,75.07
2019-06-07T23:38:19.196Z,75.20
2019-06-07T23:40:49.922Z,76.09
2019-06-07T23:43:21.592Z,75.84
2019-06-07T23:45:52.333Z,76.02
2019-06-07T23:48:23.362Z,76.00
2019-06-07T23:50:54.280Z,76.62
2019-06-07T23:53:26.239Z,77.02
2019-06-07T23:55:57.177Z,76.36
2019-06-07T23:58:28.120Z,75.82
